Eunice, LA

6:14 PM CDT on September 21, 2014 (GMT -0500)
Lafayette Regional | Change Station
CLOSE
Current Station
Airport
Location: Lafayette,
Elevation: 39 ft
Nearby Weather Stations

Elev 39 ft 30.21 °N, 91.98 °W | Updated 21 minutes ago

Clear
Clear
87 °F
Feels Like 91 °F
N
4
Wind Variable Wind from ENE

Today
High -- | Low -- °F
--% Chance of Precip.
Yesterday
High -- | Low -- °F
Precip. -- in
6:57 AM 7:07 PM
Waning Crescent, 5% visible
Pressure 29.97 in
Visibility 10.0 miles
Clouds Few 5000 ft
Heat Index 91 °F
Dew Point 69 °F
Humidity 55%
Rainfall 0.00 in
Snow Depth Not available.
UV 1 out of 12
Pollen 10.10 out of 12
Air Quality Not available.
Flu Activity Not available.
METAR KLFT 212253Z 06003KT 10SM FEW050 31/21 A2997 RMK AO2 SLP148 T03060206

More Conditions Fewer Conditions

Pressure 29.97 in
Visibility 10.0 miles
Clouds Few 5000 ft
Heat Index 91 °F
Dew Point 69 °F
Humidity 55%
Rainfall 0.00 in
Snow Depth Not available.
UV 1 out of 12
Pollen 10.10 out of 12
Air Quality Not available.
Flu Activity Not available.
METAR KLFT 212253Z 06003KT 10SM FEW050 31/21 A2997 RMK AO2 SLP148 T03060206

More Conditions Fewer Conditions

10-Day Weather Forecast

Almanac

Astronomy

Sep. 21, 2014 Rise Set
Actual Time 6:57 AM CDT 7:07 PM CDT
Civil Twilight 6:33 AM CDT 7:31 PM CDT
Nautical Twilight 6:05 AM CDT 7:59 PM CDT
Astronomical Twilight 5:37 AM CDT 8:27 PM CDT
Moon 4:39 AM CDT 5:37 PM CDT
Length of Visible Light 12h 58m
Length of Day
12h 10m
Tomorrow will be 1m 50s shorter.
Waning Crescent, 5% of the Moon is Illuminated
Today
Waning Crescent
Sep 24
New
Oct 1
First Quarter
Oct 8
Full
Oct 15
Last Quarter

Today's Extremes

State Highs State Lows

Community

WunderPhotos

Upload Photos

1,755,292 photos uploaded!

WunderBlogs® & News

Nearby

Snow Depth

Station Depth Elevation
No new snow has been reported.

Earthquake Activity

City Distance Mag. Time & Date
No recent earthquake activity has been reported nearby.
Minimum magnitude displayed is 2.5.

Coastal Water Temperatures

Place Temperature
No Stations Reporting

Nearby Weather Stations